Time;durP1;ratioP1;P1;durP2;ratioP2;P2;SDS_P1;SDS_P2;PMS_P1;PMS_P2;Temp;Humidity;BMP_temperature;BMP_pressure;BME280_temperature;BME280_humidity;BME280_pressure;Samples;Min_cycle;Max_cycle;Signal;HPM_P1;HPM_P2
2023/05/05 00:01:25;;;;;;;14.85;3.95;;;10.60;99.90;;;;;;5133983;27;20503;-51
2023/05/05 00:03:51;;;;;;;12.63;4.55;;;10.50;99.90;;;;;;5133579;27;20073;-53
2023/05/05 00:06:17;;;;;;;8.13;3.40;;;10.60;99.90;;;;;;5133885;27;20446;-48
2023/05/05 00:08:42;;;;;;;11.57;3.90;;;10.40;99.90;;;;;;5134592;27;20525;-52
2023/05/05 00:11:08;;;;;;;11.38;3.78;;;10.70;99.90;;;;;;5134109;27;20376;-49
2023/05/05 00:13:34;;;;;;;8.43;4.30;;;10.50;99.90;;;;;;5115881;27;20145;-47
2023/05/05 00:16:00;;;;;;;9.43;3.63;;;10.40;99.90;;;;;;5115210;27;20050;-50
2023/05/05 00:18:27;;;;;;;8.27;3.65;;;10.40;99.90;;;;;;5135816;27;20042;-51
2023/05/05 00:20:52;;;;;;;9.38;3.60;;;10.50;99.90;;;;;;5133950;27;20046;-51
2023/05/05 00:23:19;;;;;;;9.07;3.70;;;10.60;99.90;;;;;;5133243;27;20131;-49
2023/05/05 00:25:45;;;;;;;10.85;3.78;;;10.60;99.90;;;;;;5115217;27;21331;-52
2023/05/05 00:28:12;;;;;;;12.80;4.70;;;10.60;99.90;;;;;;5137106;27;20046;-53
2023/05/05 00:30:39;;;;;;;8.85;3.63;;;10.50;99.90;;;;;;5133983;27;20147;-50
2023/05/05 00:33:04;;;;;;;8.25;3.65;;;10.70;99.90;;;;;;5115190;27;20148;-48
2023/05/05 00:35:30;;;;;;;18.10;5.05;;;10.50;99.90;;;;;;5115297;27;20043;-50
2023/05/05 00:37:56;;;;;;;10.30;3.92;;;11.20;99.90;;;;;;5133304;27;20034;-51
2023/05/05 00:40:22;;;;;;;10.80;3.58;;;10.70;99.90;;;;;;5131652;27;20164;-52
2023/05/05 00:42:51;;;;;;;8.57;3.55;;;10.50;99.90;;;;;;5132711;27;20039;-48
2023/05/05 00:45:18;;;;;;;8.48;3.78;;;10.60;99.90;;;;;;5115024;27;20047;-50
2023/05/05 00:47:50;;;;;;;8.75;3.92;;;10.60;99.90;;;;;;5135388;27;20054;-49
2023/05/05 00:50:23;;;;;;;9.02;3.30;;;10.50;99.90;;;;;;5109893;27;21234;-48
2023/05/05 00:52:52;;;;;;;9.02;3.13;;;10.40;99.90;;;;;;5115028;27;20046;-47
2023/05/05 00:55:18;;;;;;;7.65;3.50;;;10.80;99.90;;;;;;5133592;27;20072;-50
2023/05/05 00:57:45;;;;;;;8.85;3.38;;;10.70;99.90;;;;;;5135196;27;20066;-50
2023/05/05 01:00:11;;;;;;;8.32;3.55;;;10.70;99.90;;;;;;5133131;27;20091;-46
2023/05/05 01:02:38;;;;;;;8.10;3.50;;;10.70;99.90;;;;;;5132587;27;20055;-49
2023/05/05 01:05:05;;;;;;;7.82;3.20;;;10.60;99.90;;;;;;5133391;27;20146;-48
2023/05/05 01:07:43;;;;;;;8.23;3.67;;;10.60;99.90;;;;;;5133684;27;20046;-53
2023/05/05 01:10:33;;;;;;;11.88;4.50;;;10.60;99.90;;;;;;5134439;27;20134;-49
2023/05/05 01:13:24;;;;;;;6.97;3.40;;;10.60;99.90;;;;;;5134676;27;20171;-47
2023/05/05 01:15:57;;;;;;;7.70;3.45;;;10.50;99.90;;;;;;5131707;27;20038;-49
2023/05/05 01:18:35;;;;;;;8.77;3.70;;;10.50;99.90;;;;;;5133701;27;20046;-48
2023/05/05 01:21:26;;;;;;;12.45;3.70;;;10.40;99.90;;;;;;5132654;27;20077;-48
2023/05/05 01:23:51;;;;;;;6.63;3.65;;;10.70;99.90;;;;;;5133333;27;20043;-49
2023/05/05 01:26:26;;;;;;;8.40;3.65;;;10.50;99.90;;;;;;5133768;27;20307;-49
2023/05/05 01:29:08;;;;;;;16.63;4.28;;;10.50;99.90;;;;;;5133871;27;20046;-49
2023/05/05 01:31:50;;;;;;;8.10;3.67;;;10.40;99.90;;;;;;5133800;27;20130;-48
2023/05/05 01:34:22;;;;;;;15.50;5.03;;;10.60;99.90;;;;;;5132150;27;20674;-47
2023/05/05 01:37:06;;;;;;;12.15;4.00;;;10.50;99.90;;;;;;5133090;27;20054;-47
2023/05/05 01:39:35;;;;;;;8.25;3.38;;;10.50;99.90;;;;;;5131102;27;20597;-48
2023/05/05 01:42:05;;;;;;;9.77;3.63;;;10.50;99.90;;;;;;5132004;27;20235;-51
2023/05/05 01:44:33;;;;;;;7.45;3.67;;;10.40;99.90;;;;;;5132924;27;20576;-47
2023/05/05 01:47:01;;;;;;;9.95;3.90;;;10.40;99.90;;;;;;5113336;27;20054;-49
2023/05/05 01:49:28;;;;;;;10.85;4.32;;;10.50;99.90;;;;;;5132997;27;20668;-47
2023/05/05 01:51:55;;;;;;;8.77;3.58;;;10.40;99.90;;;;;;5132161;27;20080;-52
2023/05/05 01:54:23;;;;;;;7.80;3.40;;;10.20;99.90;;;;;;5113179;27;20051;-47
2023/05/05 01:56:51;;;;;;;6.28;3.53;;;10.30;99.90;;;;;;5133158;27;20038;-50
2023/05/05 01:59:19;;;;;;;9.32;3.67;;;10.40;99.90;;;;;;5134263;27;20050;-49
2023/05/05 02:01:47;;;;;;;11.73;4.75;;;10.20;99.90;;;;;;5132681;27;20046;-50
2023/05/05 02:04:16;;;;;;;8.60;3.88;;;10.40;99.90;;;;;;5130665;27;20050;-49
2023/05/05 02:06:44;;;;;;;7.53;3.83;;;10.40;99.90;;;;;;5130606;27;20027;-50
2023/05/05 02:09:12;;;;;;;11.30;4.20;;;10.20;99.90;;;;;;5131150;27;20042;-49
2023/05/05 02:11:39;;;;;;;9.60;3.80;;;10.30;99.90;;;;;;5131912;27;20042;-47
2023/05/05 02:14:07;;;;;;;11.05;3.80;;;10.30;99.90;;;;;;5131977;27;21009;-48
2023/05/05 02:16:36;;;;;;;7.13;4.00;;;10.20;99.90;;;;;;5132620;27;20525;-47
2023/05/05 02:19:05;;;;;;;7.90;3.63;;;11.20;99.90;;;;;;5131522;27;20066;-47
2023/05/05 02:21:32;;;;;;;7.95;3.47;;;10.10;99.90;;;;;;5132363;27;20066;-47
2023/05/05 02:23:58;;;;;;;11.70;3.80;;;10.10;99.90;;;;;;5131689;27;20054;-49
2023/05/05 02:26:25;;;;;;;6.85;3.65;;;10.20;99.90;;;;;;5132330;27;21378;-52
2023/05/05 02:29:18;;;;;;;7.20;3.90;;;10.10;99.90;;;;;;5134674;27;20071;-52
2023/05/05 02:31:47;;;;;;;9.95;3.83;;;10.20;99.90;;;;;;5087292;27;20070;-52
2023/05/05 02:34:20;;;;;;;7.95;3.53;;;10.20;99.90;;;;;;5132657;27;20378;-51
2023/05/05 02:36:50;;;;;;;10.98;4.07;;;10.20;99.90;;;;;;5132649;27;20487;-48
2023/05/05 02:39:23;;;;;;;10.32;4.22;;;10.20;99.90;;;;;;5131618;27;20074;-52
2023/05/05 02:41:52;;;;;;;11.02;4.68;;;10.20;99.90;;;;;;5130493;27;20917;-47
2023/05/05 02:44:20;;;;;;;13.45;3.95;;;10.30;99.90;;;;;;5131523;27;20102;-49
2023/05/05 02:46:46;;;;;;;6.85;3.78;;;10.30;99.90;;;;;;5131894;27;20038;-51
2023/05/05 02:49:13;;;;;;;9.82;3.83;;;10.30;99.90;;;;;;5112563;27;20045;-53
2023/05/05 02:51:39;;;;;;;13.00;4.47;;;10.20;99.90;;;;;;5131173;27;20046;-51
2023/05/05 02:54:05;;;;;;;8.32;3.83;;;10.20;99.90;;;;;;5132637;27;20039;-52
2023/05/05 02:56:46;;;;;;;8.52;3.90;;;10.20;99.90;;;;;;5111562;27;20075;-50
2023/05/05 02:59:18;;;;;;;8.55;4.00;;;10.20;99.90;;;;;;5133381;27;20047;-49
2023/05/05 03:01:55;;;;;;;;;;;10.20;99.90;;;;;;5131850;27;20121;-51
2023/05/05 03:04:26;;;;;;;10.20;4.22;;;10.20;99.90;;;;;;5130637;27;20101;-52
2023/05/05 03:06:57;;;;;;;11.73;4.70;;;10.00;99.90;;;;;;5131513;27;20038;-47
2023/05/05 03:09:35;;;;;;;11.00;4.22;;;10.20;99.90;;;;;;5129666;27;20055;-52
2023/05/05 03:12:04;;;;;;;9.68;3.90;;;10.20;99.90;;;;;;5132571;27;20394;-49
2023/05/05 03:14:40;;;;;;;8.82;4.07;;;10.20;99.90;;;;;;5110740;27;20382;-52
2023/05/05 03:17:07;;;;;;;12.93;4.00;;;10.00;99.90;;;;;;5131825;27;20087;-53
2023/05/05 03:19:34;;;;;;;8.65;3.63;;;10.00;99.90;;;;;;5134370;27;20085;-53
2023/05/05 03:22:02;;;;;;;6.55;3.80;;;10.10;99.90;;;;;;5134044;27;20053;-52
2023/05/05 03:24:28;;;;;;;10.27;4.15;;;10.10;99.90;;;;;;5133985;27;20077;-53
2023/05/05 03:26:54;;;;;;;10.05;3.60;;;9.90;99.90;;;;;;5135008;27;20137;-51
2023/05/05 03:29:20;;;;;;;9.35;4.30;;;10.00;99.90;;;;;;5118919;27;20099;-49
2023/05/05 03:31:45;;;;;;;8.27;4.25;;;10.00;99.90;;;;;;5134875;27;20054;-52
2023/05/05 03:34:11;;;;;;;12.07;3.75;;;9.90;99.90;;;;;;5133854;27;20111;-47
2023/05/05 03:36:38;;;;;;;7.22;4.00;;;9.80;99.90;;;;;;5134346;27;20099;-51
2023/05/05 03:39:03;;;;;;;7.18;3.90;;;9.90;99.90;;;;;;5134798;27;20039;-50
2023/05/05 03:41:29;;;;;;;11.07;4.45;;;9.80;99.90;;;;;;5135293;27;20388;-51
2023/05/05 03:43:55;;;;;;;7.43;4.03;;;9.90;99.90;;;;;;5133912;27;20077;-51
2023/05/05 03:46:21;;;;;;;10.25;4.32;;;10.00;99.90;;;;;;5117567;27;20460;-49
2023/05/05 03:48:47;;;;;;;11.23;4.07;;;9.90;99.90;;;;;;5116472;27;20038;-52
2023/05/05 03:51:13;;;;;;;14.63;6.00;;;9.90;99.90;;;;;;5134009;27;20057;-48
2023/05/05 03:53:39;;;;;;;10.18;3.92;;;9.80;99.90;;;;;;5116668;27;21055;-52
2023/05/05 03:56:05;;;;;;;12.20;4.53;;;9.90;99.90;;;;;;5134996;27;20058;-51
2023/05/05 03:58:30;;;;;;;9.77;4.53;;;10.10;99.90;;;;;;5134802;27;20500;-49
2023/05/05 04:00:56;;;;;;;9.82;4.35;;;10.00;99.90;;;;;;5115122;27;20161;-50
2023/05/05 04:03:22;;;;;;;10.85;4.78;;;9.90;99.90;;;;;;5133339;27;20042;-52
2023/05/05 04:05:48;;;;;;;9.93;4.75;;;9.80;99.90;;;;;;5132412;27;20701;-50
2023/05/05 04:08:14;;;;;;;8.80;4.65;;;9.80;99.90;;;;;;5132637;27;20384;-53
2023/05/05 04:10:40;;;;;;;15.55;5.38;;;9.80;99.90;;;;;;5134679;27;20053;-55
2023/05/05 04:13:07;;;;;;;10.13;5.40;;;9.80;99.90;;;;;;5133812;27;20057;-56
2023/05/05 04:15:33;;;;;;;12.52;5.93;;;10.00;99.90;;;;;;5134273;27;20423;-56
2023/05/05 04:17:59;;;;;;;10.48;5.20;;;9.70;99.90;;;;;;5134252;27;20161;-56
2023/05/05 04:20:25;;;;;;;8.52;5.60;;;9.70;99.90;;;;;;5135198;27;20064;-56
2023/05/05 04:22:50;;;;;;;13.70;6.25;;;9.80;99.90;;;;;;5134417;27;20399;-57
2023/05/05 04:25:16;;;;;;;15.32;6.28;;;9.60;99.90;;;;;;5133631;27;20046;-56
2023/05/05 04:27:42;;;;;;;11.32;5.40;;;9.50;99.90;;;;;;5134452;27;20193;-56
2023/05/05 04:30:08;;;;;;;12.00;5.57;;;9.60;99.90;;;;;;5118029;27;20070;-56
2023/05/05 04:32:34;;;;;;;12.20;6.03;;;9.70;99.90;;;;;;5132909;27;20096;-56
2023/05/05 04:35:00;;;;;;;11.13;5.65;;;9.40;99.90;;;;;;5133703;27;20726;-56
2023/05/05 04:37:25;;;;;;;17.65;6.82;;;9.50;99.90;;;;;;5132507;27;20047;-56
2023/05/05 04:39:51;;;;;;;12.88;6.00;;;9.60;99.90;;;;;;5135309;27;20042;-56
2023/05/05 04:42:17;;;;;;;11.27;6.10;;;9.50;99.90;;;;;;5133585;27;20062;-56
2023/05/05 04:44:43;;;;;;;11.82;6.13;;;9.50;99.90;;;;;;5132836;27;20055;-55
2023/05/05 04:47:09;;;;;;;9.30;5.70;;;9.30;99.90;;;;;;5133832;27;20058;-56
2023/05/05 04:49:35;;;;;;;11.35;6.53;;;9.40;99.90;;;;;;5132817;27;20158;-57
2023/05/05 04:52:00;;;;;;;13.55;6.45;;;9.30;99.90;;;;;;5132692;27;20027;-56
2023/05/05 04:54:26;;;;;;;10.68;6.07;;;9.20;99.90;;;;;;5133222;27;20498;-57
2023/05/05 04:56:52;;;;;;;13.02;7.38;;;9.40;99.90;;;;;;5132584;27;20042;-56
2023/05/05 04:59:18;;;;;;;11.23;6.75;;;9.20;99.90;;;;;;5115583;27;20521;-56
2023/05/05 05:01:44;;;;;;;13.80;6.28;;;9.20;99.90;;;;;;5115557;27;20039;-56
2023/05/05 05:04:10;;;;;;;8.82;5.80;;;9.20;99.90;;;;;;5133775;27;20042;-56
2023/05/05 05:06:35;;;;;;;10.07;6.45;;;9.20;99.90;;;;;;5132128;27;20042;-56
2023/05/05 05:09:01;;;;;;;12.07;6.88;;;9.30;99.90;;;;;;5132520;27;20058;-56
2023/05/05 05:11:27;;;;;;;12.02;6.35;;;9.10;99.90;;;;;;5133477;27;20171;-55
2023/05/05 05:13:53;;;;;;;12.15;6.10;;;9.20;99.90;;;;;;5132667;27;20564;-56
2023/05/05 05:16:18;;;;;;;11.10;6.50;;;9.10;99.90;;;;;;5132451;27;20057;-55
2023/05/05 05:18:44;;;;;;;12.88;7.05;;;9.20;99.90;;;;;;5135124;27;20038;-55
2023/05/05 05:21:10;;;;;;;11.02;6.55;;;9.90;99.90;;;;;;5132227;27;20129;-56
2023/05/05 05:23:36;;;;;;;12.40;6.97;;;8.90;99.90;;;;;;5131665;27;20051;-56
2023/05/05 05:26:04;;;;;;;12.98;6.72;;;9.00;99.90;;;;;;5133005;27;20558;-55
2023/05/05 05:28:30;;;;;;;15.07;6.97;;;9.00;99.90;;;;;;5132943;27;20066;-55
2023/05/05 05:30:56;;;;;;;10.45;6.60;;;9.20;99.90;;;;;;5134025;27;20046;-57
2023/05/05 05:33:21;;;;;;;12.43;6.20;;;9.20;99.90;;;;;;5130341;27;20103;-56
2023/05/05 05:35:47;;;;;;;14.80;6.57;;;9.30;99.90;;;;;;5133107;27;20050;-56
2023/05/05 05:38:13;;;;;;;14.93;7.32;;;9.30;99.90;;;;;;5131540;27;20043;-58
2023/05/05 05:40:39;;;;;;;12.98;6.88;;;9.60;99.90;;;;;;5130493;27;20043;-56
2023/05/05 05:43:05;;;;;;;12.35;6.75;;;9.80;99.90;;;;;;5131420;27;20443;-57
2023/05/05 05:45:31;;;;;;;15.77;7.40;;;9.90;99.90;;;;;;5132564;27;20607;-56
2023/05/05 05:47:56;;;;;;;11.73;6.80;;;10.00;99.90;;;;;;5130005;27;20034;-56
2023/05/05 05:50:23;;;;;;;10.43;6.50;;;10.10;99.90;;;;;;5131096;27;20034;-56
2023/05/05 05:52:49;;;;;;;8.60;5.82;;;10.20;99.90;;;;;;5132238;27;20066;-59
2023/05/05 05:55:14;;;;;;;9.25;6.10;;;11.70;99.90;;;;;;5130832;27;20108;-56
2023/05/05 05:57:40;;;;;;;11.43;6.65;;;10.40;99.90;;;;;;5131933;27;20048;-56
2023/05/05 06:00:06;;;;;;;10.85;6.28;;;10.50;99.90;;;;;;5134435;27;20050;-55
2023/05/05 06:02:32;;;;;;;14.25;6.55;;;10.40;99.90;;;;;;5113474;27;20046;-56
2023/05/05 06:04:58;;;;;;;9.15;6.22;;;10.50;99.90;;;;;;5130447;27;20035;-56
2023/05/05 06:07:24;;;;;;;9.40;5.72;;;10.60;99.90;;;;;;5131444;27;20336;-56
2023/05/05 06:09:50;;;;;;;11.75;5.95;;;10.70;99.90;;;;;;5133235;27;21114;-56
2023/05/05 06:12:15;;;;;;;12.13;6.25;;;10.80;99.90;;;;;;5111185;27;20070;-56
2023/05/05 06:14:41;;;;;;;11.38;5.95;;;11.10;99.90;;;;;;5130433;27;20157;-56
2023/05/05 06:17:07;;;;;;;9.00;6.07;;;11.30;99.90;;;;;;5130177;27;20054;-56
2023/05/05 06:19:34;;;;;;;10.80;6.47;;;11.40;99.90;;;;;;5128008;27;20038;-56
2023/05/05 06:21:59;;;;;;;7.75;5.57;;;10.10;99.90;;;;;;5129564;27;20056;-55
2023/05/05 06:24:25;;;;;;;12.60;6.25;;;11.10;99.90;;;;;;5129848;27;20038;-58
2023/05/05 06:26:51;;;;;;;10.35;6.07;;;11.10;99.90;;;;;;5132121;27;20125;-57
2023/05/05 06:29:16;;;;;;;10.43;6.28;;;11.20;99.90;;;;;;5132510;27;20042;-57
2023/05/05 06:31:42;;;;;;;28.73;6.72;;;11.00;99.90;;;;;;5133656;27;20375;-57
2023/05/05 06:34:08;;;;;;;11.23;6.40;;;11.20;99.90;;;;;;5114490;27;20039;-55
2023/05/05 06:36:34;;;;;;;10.23;5.97;;;11.10;99.90;;;;;;5130677;27;20046;-53
2023/05/05 06:39:00;;;;;;;9.95;5.90;;;11.50;99.90;;;;;;5131821;27;20147;-55
2023/05/05 06:41:26;;;;;;;11.30;5.95;;;11.40;99.90;;;;;;5131763;27;20558;-55
2023/05/05 06:43:51;;;;;;;10.85;5.95;;;12.10;99.90;;;;;;5132292;27;20103;-54
2023/05/05 06:46:17;;;;;;;11.20;5.32;;;12.20;99.90;;;;;;5131115;27;20099;-55
2023/05/05 06:48:43;;;;;;;8.95;5.57;;;13.10;99.90;;;;;;5131524;27;20042;-55
2023/05/05 06:51:08;;;;;;;7.72;5.20;;;14.00;99.90;;;;;;5132891;27;20046;-56
2023/05/05 06:53:34;;;;;;;7.93;4.95;;;15.40;99.90;;;;;;5128926;27;20561;-55
2023/05/05 06:56:00;;;;;;;10.88;5.20;;;16.70;99.90;;;;;;5129441;27;20042;-58
2023/05/05 06:58:26;;;;;;;8.43;4.65;;;17.40;99.90;;;;;;5131680;27;20031;-56
2023/05/05 07:00:52;;;;;;;9.38;5.13;;;18.30;99.90;;;;;;5131696;27;20034;-58
2023/05/05 07:03:18;;;;;;;11.75;4.88;;;18.70;99.90;;;;;;5129665;27;20070;-57
2023/05/05 07:05:44;;;;;;;8.23;4.40;;;19.40;99.90;;;;;;5129859;27;20062;-56
2023/05/05 07:08:10;;;;;;;9.55;4.32;;;19.90;99.90;;;;;;5131338;27;20054;-57
2023/05/05 07:10:36;;;;;;;9.93;4.78;;;20.30;99.90;;;;;;5129953;27;20035;-57
2023/05/05 07:13:01;;;;;;;11.43;4.60;;;20.80;99.90;;;;;;5111676;27;20050;-57
2023/05/05 07:15:27;;;;;;;7.88;4.90;;;21.30;99.90;;;;;;5129723;27;20487;-56
2023/05/05 07:17:53;;;;;;;6.30;4.53;;;21.80;99.90;;;;;;5131102;27;20627;-57
2023/05/05 07:20:19;;;;;;;8.85;5.07;;;22.50;99.90;;;;;;5130629;27;20320;-57
2023/05/05 07:22:44;;;;;;;12.75;4.25;;;22.90;99.90;;;;;;5112104;27;20062;-57
2023/05/05 07:25:10;;;;;;;8.60;4.85;;;22.80;99.90;;;;;;5114106;27;20042;-57
2023/05/05 07:27:37;;;;;;;8.38;4.68;;;22.50;99.90;;;;;;5132803;27;20050;-56
2023/05/05 07:30:03;;;;;;;8.30;4.68;;;23.50;99.90;;;;;;5134138;27;20050;-56
2023/05/05 07:32:29;;;;;;;7.45;4.57;;;23.30;99.90;;;;;;5131262;27;20548;-56
2023/05/05 07:34:55;;;;;;;8.88;4.55;;;23.60;99.90;;;;;;5131691;27;20035;-56
2023/05/05 07:37:21;;;;;;;6.90;4.25;;;23.70;99.90;;;;;;5133203;27;20514;-56
2023/05/05 07:39:47;;;;;;;9.60;5.03;;;23.30;99.90;;;;;;5133478;27;20130;-57
2023/05/05 07:42:13;;;;;;;9.98;5.20;;;20.80;99.90;;;;;;5132855;27;20050;-55
2023/05/05 07:44:39;;;;;;;9.55;4.95;;;22.10;99.90;;;;;;5132237;27;20051;-55
2023/05/05 07:47:05;;;;;;;7.82;4.82;;;22.20;99.90;;;;;;5133021;27;20121;-55
2023/05/05 07:49:31;;;;;;;9.05;4.93;;;21.60;99.90;;;;;;5133536;27;20132;-54
2023/05/05 07:51:56;;;;;;;7.90;5.13;;;20.50;99.90;;;;;;5131138;27;20077;-54
2023/05/05 07:54:22;;;;;;;9.70;5.32;;;19.90;99.90;;;;;;5131758;27;20054;-54
2023/05/05 07:56:48;;;;;;;9.75;5.50;;;19.50;99.90;;;;;;5133305;27;20804;-55
2023/05/05 07:59:14;;;;;;;7.88;5.70;;;19.00;99.90;;;;;;5112776;27;20076;-54
2023/05/05 08:01:40;;;;;;;9.52;6.22;;;18.60;99.90;;;;;;5133488;27;20043;-55
2023/05/05 08:04:06;;;;;;;9.02;6.18;;;18.60;99.90;;;;;;5132688;27;20046;-56
2023/05/05 08:06:32;;;;;;;8.57;5.93;;;18.40;99.90;;;;;;5135720;27;20034;-56
2023/05/05 08:09:02;;;;;;;10.35;5.68;;;18.50;99.90;;;;;;5136473;27;20118;-55
2023/05/05 08:11:27;;;;;;;12.80;6.53;;;18.60;99.90;;;;;;5135987;27;20049;-55
2023/05/05 08:13:53;;;;;;;13.38;6.28;;;18.50;99.90;;;;;;5134678;27;20038;-55
2023/05/05 08:16:19;;;;;;;11.10;6.65;;;18.40;99.90;;;;;;5134345;27;20099;-55
2023/05/05 08:18:45;;;;;;;11.02;7.18;;;18.40;99.90;;;;;;5118516;27;20030;-56
2023/05/05 08:21:11;;;;;;;11.38;7.82;;;18.90;99.90;;;;;;5117010;27;20053;-54
2023/05/05 08:23:38;;;;;;;10.25;7.65;;;18.20;99.90;;;;;;5136875;27;20081;-55
2023/05/05 08:26:05;;;;;;;14.27;7.35;;;17.70;99.90;;;;;;5135201;27;20030;-55
2023/05/05 08:28:31;;;;;;;11.38;7.95;;;17.90;99.90;;;;;;5135543;27;20452;-54
2023/05/05 08:30:57;;;;;;;8.90;7.38;;;18.30;99.90;;;;;;5134534;27;20103;-55
2023/05/05 08:33:23;;;;;;;11.50;7.75;;;18.70;99.90;;;;;;5134667;27;20050;-55
2023/05/05 08:35:49;;;;;;;19.58;8.60;;;19.50;99.90;;;;;;5134384;27;20150;-55
2023/05/05 08:38:15;;;;;;;14.35;8.02;;;19.90;99.90;;;;;;5134809;27;20038;-55
2023/05/05 08:40:41;;;;;;;13.45;7.53;;;19.80;99.90;;;;;;5134425;27;20058;-55
2023/05/05 08:43:08;;;;;;;13.73;8.50;;;20.20;99.90;;;;;;5133981;27;20058;-55
2023/05/05 08:45:34;;;;;;;12.60;8.60;;;20.00;99.90;;;;;;5134824;27;20047;-55
2023/05/05 08:48:02;;;;;;;18.88;9.32;;;20.10;99.90;;;;;;5136003;27;20050;-55
2023/05/05 08:50:29;;;;;;;10.80;8.95;;;19.80;99.90;;;;;;5134922;27;20347;-55
2023/05/05 08:53:16;;;;;;;15.18;9.75;;;20.20;99.90;;;;;;5134646;27;20131;-54
2023/05/05 08:55:55;;;;;;;12.73;9.00;;;20.30;99.90;;;;;;5113800;27;20054;-55
2023/05/05 08:58:24;;;;;;;12.93;9.00;;;20.60;99.90;;;;;;5116034;27;20132;-55
2023/05/05 09:00:52;;;;;;;14.02;9.70;;;20.90;99.90;;;;;;5137019;27;20046;-55
2023/05/05 09:03:18;;;;;;;12.43;9.48;;;20.30;99.90;;;;;;5117171;27;20039;-54
2023/05/05 09:05:44;;;;;;;14.00;9.85;;;19.90;99.90;;;;;;5133895;27;20057;-55
2023/05/05 09:08:10;;;;;;;15.57;9.40;;;19.50;99.90;;;;;;5134296;27;20084;-54
2023/05/05 09:10:40;;;;;;;15.52;9.48;;;19.00;99.90;;;;;;5136360;27;20448;-55
2023/05/05 09:13:06;;;;;;;16.92;10.48;;;19.30;99.90;;;;;;5116415;27;20082;-55
2023/05/05 09:15:32;;;;;;;13.70;10.02;;;19.70;99.90;;;;;;5134761;27;20125;-55
2023/05/05 09:17:59;;;;;;;14.75;9.32;;;20.40;99.90;;;;;;5133841;27;20574;-54
2023/05/05 09:20:35;;;;;;;15.32;10.70;;;21.30;99.90;;;;;;5132911;27;20499;-55
2023/05/05 09:23:15;;;;;;;14.90;10.23;;;21.40;99.90;;;;;;5133572;27;20342;-55
2023/05/05 09:25:43;;;;;;;15.27;10.48;;;21.00;99.90;;;;;;5134223;27;20043;-53
2023/05/05 09:28:17;;;;;;;15.52;10.48;;;20.30;99.90;;;;;;5134789;27;20041;-55
2023/05/05 09:30:45;;;;;;;17.63;11.05;;;19.90;99.90;;;;;;5135356;27;20042;-54
2023/05/05 09:33:11;;;;;;;13.70;10.82;;;20.30;99.90;;;;;;5133712;27;20107;-55
2023/05/05 09:35:51;;;;;;;18.27;12.25;;;20.30;99.90;;;;;;5133484;27;20037;-52
2023/05/05 09:38:18;;;;;;;15.35;12.50;;;20.90;99.90;;;;;;5133571;27;20042;-55
2023/05/05 09:40:46;;;;;;;16.80;12.45;;;20.60;99.90;;;;;;5133653;27;20087;-54
2023/05/05 09:43:12;;;;;;;21.00;14.32;;;21.00;99.90;;;;;;5133496;27;20054;-53
2023/05/05 09:45:38;;;;;;;18.73;14.25;;;21.10;99.90;;;;;;5133454;27;20080;-54
2023/05/05 09:48:05;;;;;;;19.17;14.57;;;20.80;99.90;;;;;;5134443;27;20103;-53
2023/05/05 09:50:42;;;;;;;21.25;16.55;;;20.90;99.90;;;;;;5133613;27;20039;-54
2023/05/05 09:53:09;;;;;;;21.52;16.73;;;21.00;99.90;;;;;;5132811;27;20328;-55
2023/05/05 09:55:36;;;;;;;24.55;17.60;;;20.70;99.90;;;;;;5132718;27;20107;-54
2023/05/05 09:58:26;;;;;;;22.27;17.15;;;20.70;99.90;;;;;;5134267;27;20054;-55
2023/05/05 10:00:52;;;;;;;19.48;14.90;;;20.80;99.90;;;;;;5136086;27;20038;-54
2023/05/05 10:03:18;;;;;;;19.20;15.40;;;20.80;99.90;;;;;;5114039;27;20062;-54
2023/05/05 10:05:55;;;;;;;21.85;16.98;;;20.80;99.90;;;;;;5132197;27;20039;-53
2023/05/05 10:08:23;;;;;;;21.45;17.08;;;21.10;99.90;;;;;;5131789;27;20038;-54
2023/05/05 10:11:00;;;;;;;21.20;17.20;;;21.30;99.90;;;;;;5131059;27;20045;-54
2023/05/05 10:13:27;;;;;;;19.52;16.33;;;21.50;99.90;;;;;;5133673;27;20039;-54
2023/05/05 10:15:56;;;;;;;20.33;16.58;;;21.60;99.90;;;;;;5114149;27;20058;-55
2023/05/05 10:18:27;;;;;;;18.40;16.35;;;21.60;99.90;;;;;;5132010;27;20035;-57
2023/05/05 10:20:58;;;;;;;20.08;15.30;;;21.80;99.90;;;;;;5131751;27;20499;-54
2023/05/05 10:23:46;;;;;;;17.55;14.73;;;21.80;99.90;;;;;;5132204;27;20395;-54
2023/05/05 10:26:13;;;;;;;20.67;16.00;;;21.40;99.90;;;;;;5109834;27;20262;-53
2023/05/05 10:28:55;;;;;;;16.92;13.73;;;21.40;99.90;;;;;;5132806;27;20289;-54
2023/05/05 10:31:46;;;;;;;16.20;14.38;;;21.50;99.90;;;;;;5134384;27;21304;-54
2023/05/05 10:34:50;;;;;;;19.85;14.65;;;21.40;99.90;;;;;;5132271;27;20466;-52
2023/05/05 10:37:17;;;;;;;16.58;12.40;;;21.20;99.90;;;;;;5132326;27;20194;-54
2023/05/05 10:39:45;;;;;;;15.38;11.60;;;21.10;99.90;;;;;;5132411;27;20127;-51
2023/05/05 10:42:13;;;;;;;17.98;12.40;;;21.00;99.90;;;;;;5131675;27;20054;-54
2023/05/05 10:44:40;;;;;;;16.95;13.02;;;20.60;99.90;;;;;;5132643;27;20466;-54
2023/05/05 10:47:07;;;;;;;17.85;12.00;;;20.30;99.90;;;;;;5113841;27;20062;-54
2023/05/05 10:49:47;;;;;;;16.98;11.27;;;20.20;99.90;;;;;;5132648;27;20034;-53
2023/05/05 10:52:23;;;;;;;17.95;11.15;;;20.30;99.90;;;;;;5132494;27;20129;-53
2023/05/05 10:55:01;;;;;;;15.07;10.18;;;20.40;99.90;;;;;;5132557;27;20043;-53
2023/05/05 10:57:28;;;;;;;12.30;9.70;;;20.60;99.90;;;;;;5112152;27;20037;-54
2023/05/05 10:59:54;;;;;;;15.32;10.02;;;20.80;99.90;;;;;;5114845;27;20031;-53
2023/05/05 11:02:31;;;;;;;11.65;9.68;;;21.10;99.90;;;;;;5134274;27;20039;-51
2023/05/05 11:05:08;;;;;;;12.32;9.73;;;21.40;99.90;;;;;;5132997;27;20043;-53
2023/05/05 11:07:34;;;;;;;15.45;10.60;;;21.90;99.90;;;;;;5131506;27;20095;-51
2023/05/05 11:10:02;;;;;;;13.48;9.98;;;22.00;99.90;;;;;;5132033;27;20707;-53
2023/05/05 11:12:29;;;;;;;11.88;9.98;;;22.20;99.90;;;;;;5132798;27;20384;-50
2023/05/05 11:15:26;;;;;;;12.77;10.40;;;22.30;99.90;;;;;;5132866;27;20446;-53
2023/05/05 11:18:02;;;;;;;14.60;11.05;;;22.30;99.90;;;;;;5131952;27;20767;-51
2023/05/05 11:20:51;;;;;;;13.05;10.95;;;22.30;99.90;;;;;;5132584;27;20676;-54
2023/05/05 11:23:19;;;;;;;12.55;9.02;;;21.70;99.90;;;;;;5103166;27;20058;-54
2023/05/05 11:25:46;;;;;;;9.77;7.40;;;21.50;99.90;;;;;;5131646;27;20559;-54
2023/05/05 11:28:20;;;;;;;10.68;7.35;;;22.80;99.90;;;;;;5131324;27;20046;-54
2023/05/05 11:30:57;;;;;;;10.93;6.03;;;21.10;99.90;;;;;;5132436;27;20405;-52
2023/05/05 11:33:36;;;;;;;12.18;7.18;;;21.10;99.90;;;;;;5131761;27;20065;-54
2023/05/05 11:36:06;;;;;;;7.53;4.18;;;21.00;99.90;;;;;;5131268;27;20147;-55
2023/05/05 11:38:38;;;;;;;9.68;5.53;;;20.90;99.90;;;;;;5131454;27;20049;-54
2023/05/05 11:41:11;;;;;;;;;;;21.20;99.90;;;;;;5135981;27;20046;-54
2023/05/05 11:43:37;;;;;;;7.32;3.65;;;20.90;99.90;;;;;;5134742;27;20018;-54
2023/05/05 11:46:13;;;;;;;9.13;4.28;;;20.80;99.90;;;;;;5135740;27;20619;-55
2023/05/05 11:48:46;;;;;;;9.48;5.00;;;20.60;99.90;;;;;;5134390;27;20039;-54
2023/05/05 11:51:12;;;;;;;11.77;5.22;;;20.30;99.90;;;;;;5134287;27;20129;-52
2023/05/05 11:53:43;;;;;;;7.68;4.30;;;20.20;99.90;;;;;;5135643;27;20443;-52
2023/05/05 11:56:10;;;;;;;10.27;5.47;;;20.20;99.90;;;;;;5117721;27;20039;-51
2023/05/05 11:58:36;;;;;;;8.15;4.53;;;20.30;99.90;;;;;;5137110;27;20038;-54
2023/05/05 12:01:06;;;;;;;9.88;5.75;;;20.20;99.90;;;;;;5117292;27;20042;-55
2023/05/05 12:03:38;;;;;;;8.73;4.93;;;20.30;99.90;;;;;;5136659;27;20038;-54
2023/05/05 12:06:05;;;;;;;11.38;5.95;;;20.10;99.90;;;;;;5135239;27;20403;-54
2023/05/05 12:08:38;;;;;;;10.27;6.20;;;20.30;99.90;;;;;;5134798;27;20043;-54
2023/05/05 12:11:05;;;;;;;11.65;6.60;;;20.00;99.90;;;;;;5134226;27;20042;-54
2023/05/05 12:13:31;;;;;;;11.50;6.40;;;20.10;99.90;;;;;;5135280;27;20221;-55
2023/05/05 12:16:10;;;;;;;12.13;5.30;;;20.00;99.90;;;;;;5114836;27;20293;-52
2023/05/05 12:18:36;;;;;;;9.43;4.97;;;19.80;99.90;;;;;;5133418;27;20057;-56
2023/05/05 12:21:15;;;;;;;11.23;5.22;;;20.00;99.90;;;;;;5133534;27;20047;-54
2023/05/05 12:23:41;;;;;;;9.45;4.95;;;19.80;99.90;;;;;;5135904;27;20055;-54
2023/05/05 12:26:06;;;;;;;7.95;4.53;;;19.70;99.90;;;;;;5134958;27;20095;-52
2023/05/05 12:28:47;;;;;;;9.05;4.80;;;19.50;99.90;;;;;;5135940;27;20051;-56
2023/05/05 12:31:13;;;;;;;8.83;5.13;;;19.70;99.90;;;;;;5136046;27;20046;-58
2023/05/05 12:33:40;;;;;;;10.68;5.95;;;19.30;99.90;;;;;;5135291;27;20057;-54
2023/05/05 12:36:06;;;;;;;9.02;5.28;;;19.30;99.90;;;;;;5134582;27;20043;-53
2023/05/05 12:38:32;;;;;;;10.02;5.57;;;19.10;99.90;;;;;;5134811;27;20035;-52
2023/05/05 12:40:58;;;;;;;9.57;5.82;;;19.00;99.90;;;;;;5135227;27;20525;-55
2023/05/05 12:43:28;;;;;;;9.02;6.30;;;18.80;99.90;;;;;;5132427;27;20510;-55
2023/05/05 12:46:05;;;;;;;9.90;6.18;;;18.80;99.90;;;;;;5134718;27;20044;-53
2023/05/05 12:48:32;;;;;;;8.88;6.10;;;18.40;99.90;;;;;;5133868;27;20106;-57